Time;durP1;ratioP1;P1;durP2;ratioP2;P2;SDS_P1;SDS_P2;PMS_P1;PMS_P2;Temp;Humidity;BMP_temperature;BMP_pressure;BME280_temperature;BME280_humidity;BME280_pressure;Samples;Min_cycle;Max_cycle;Signal;HPM_P1;HPM_P2
2021/10/11 00:01:55;;;;;;;6.30;4.35;;;15.50;72.80;;;;;;4882640;29;20036;-81
2021/10/11 00:04:21;;;;;;;6.93;4.75;;;15.50;72.80;;;;;;4912835;29;20494;-79
2021/10/11 00:06:46;;;;;;;5.10;3.80;;;15.60;72.90;;;;;;4881806;29;20033;-80
2021/10/11 00:09:12;;;;;;;6.25;4.35;;;15.60;72.90;;;;;;4881750;29;20033;-79
2021/10/11 00:11:38;;;;;;;7.38;4.13;;;15.50;72.80;;;;;;4881724;29;20525;-82
2021/10/11 00:14:04;;;;;;;6.15;3.97;;;15.60;72.80;;;;;;4881853;29;20044;-80
2021/10/11 00:16:30;;;;;;;5.53;3.70;;;15.60;72.90;;;;;;4880980;29;20040;-82
2021/10/11 00:18:56;;;;;;;4.97;3.42;;;15.60;72.80;;;;;;4881259;29;20084;-80
2021/10/11 00:21:22;;;;;;;5.53;3.47;;;15.60;72.80;;;;;;4881219;29;20036;-79
2021/10/11 00:23:48;;;;;;;5.32;3.63;;;15.60;72.80;;;;;;4881060;29;20384;-79
2021/10/11 00:26:14;;;;;;;4.95;3.58;;;15.60;72.80;;;;;;4882792;29;20032;-79
2021/10/11 00:28:40;;;;;;;4.85;3.40;;;15.60;72.80;;;;;;4865887;29;20453;-79
2021/10/11 00:31:05;;;;;;;5.40;3.80;;;15.60;72.80;;;;;;4850704;29;20041;-79
2021/10/11 00:33:31;;;;;;;5.25;3.40;;;15.60;72.80;;;;;;4880995;29;20124;-81
2021/10/11 00:35:57;;;;;;;5.43;3.83;;;15.60;72.70;;;;;;4880822;29;20117;-80
2021/10/11 00:38:23;;;;;;;5.93;3.20;;;15.60;72.70;;;;;;4865216;29;20040;-83
2021/10/11 00:40:48;;;;;;;4.95;3.33;;;15.60;72.80;;;;;;4881950;29;20549;-80
2021/10/11 00:43:14;;;;;;;4.40;2.83;;;15.60;72.70;;;;;;4880690;29;20041;-80
2021/10/11 00:45:40;;;;;;;4.90;3.10;;;15.60;72.70;;;;;;4882149;29;20021;-79
2021/10/11 00:48:06;;;;;;;5.43;3.70;;;15.60;72.70;;;;;;4865464;29;20041;-80
2021/10/11 00:50:33;;;;;;;4.55;2.70;;;15.60;72.70;;;;;;4880626;29;20623;-79
2021/10/11 00:52:59;;;;;;;4.53;2.95;;;15.60;72.70;;;;;;4880993;29;20070;-79
2021/10/11 00:55:25;;;;;;;4.57;2.97;;;15.60;72.70;;;;;;4880767;29;20132;-80
2021/10/11 00:57:51;;;;;;;4.70;2.67;;;15.60;72.70;;;;;;4880902;29;20037;-79
2021/10/11 01:00:18;;;;;;;5.47;3.00;;;15.60;72.70;;;;;;4865093;29;20470;-79
2021/10/11 01:02:43;;;;;;;4.07;2.70;;;15.60;72.70;;;;;;4866029;29;20148;-80
2021/10/11 01:05:09;;;;;;;5.03;2.95;;;15.60;72.70;;;;;;4912658;29;20510;-79
2021/10/11 01:07:35;;;;;;;5.07;2.97;;;15.60;72.70;;;;;;4850001;29;20040;-83
2021/10/11 01:10:02;;;;;;;4.38;2.53;;;15.50;72.60;;;;;;4880689;29;20131;-81
2021/10/11 01:12:28;;;;;;;4.45;3.00;;;15.60;72.70;;;;;;4880329;29;20467;-80
2021/10/11 01:14:54;;;;;;;3.47;2.55;;;15.60;72.70;;;;;;4879969;29;20093;-79
2021/10/11 01:17:20;;;;;;;4.47;2.80;;;15.50;72.60;;;;;;4896225;29;20032;-80
2021/10/11 01:19:55;;;;;;;4.28;2.70;;;15.50;72.60;;;;;;4864905;29;20157;-78
2021/10/11 01:22:21;;;;;;;3.80;2.33;;;15.50;72.70;;;;;;4881364;29;20065;-79
2021/10/11 01:24:47;;;;;;;4.43;2.85;;;15.50;72.60;;;;;;4880013;29;20529;-80
2021/10/11 01:27:15;;;;;;;3.08;2.22;;;15.50;72.60;;;;;;4879955;29;20558;-80
2021/10/11 01:29:41;;;;;;;3.75;2.38;;;15.50;72.60;;;;;;4864592;29;20041;-79
2021/10/11 01:32:07;;;;;;;3.33;2.20;;;15.50;72.70;;;;;;4911404;29;20029;-79
2021/10/11 01:34:33;;;;;;;3.15;1.88;;;15.50;72.70;;;;;;4881870;29;20488;-79
2021/10/11 01:36:59;;;;;;;3.65;2.42;;;15.50;72.70;;;;;;4880362;29;20037;-79
2021/10/11 01:39:24;;;;;;;3.42;2.30;;;15.50;72.70;;;;;;4849445;29;20100;-80
2021/10/11 01:41:50;;;;;;;3.25;2.30;;;15.50;72.70;;;;;;4864763;29;20037;-80
2021/10/11 01:44:16;;;;;;;2.45;1.92;;;15.50;72.70;;;;;;4864356;29;20033;-80
2021/10/11 01:46:42;;;;;;;3.53;2.22;;;15.50;72.70;;;;;;4895742;29;20041;-79
2021/10/11 01:49:07;;;;;;;3.75;2.38;;;15.50;72.70;;;;;;4879653;29;20029;-79
2021/10/11 01:51:33;;;;;;;3.00;2.10;;;15.40;72.60;;;;;;4895019;29;20041;-79
2021/10/11 01:53:59;;;;;;;2.53;1.90;;;15.50;72.70;;;;;;4849801;29;20033;-79
2021/10/11 01:56:25;;;;;;;3.53;2.10;;;15.50;72.70;;;;;;4880021;29;20492;-79
2021/10/11 01:58:51;;;;;;;1.95;1.75;;;15.50;72.70;;;;;;4879816;29;20073;-80
2021/10/11 02:01:16;;;;;;;2.97;1.92;;;15.50;72.70;;;;;;4879341;29;20406;-80
2021/10/11 02:03:42;;;;;;;2.85;1.95;;;15.50;72.70;;;;;;4863911;29;20105;-79
2021/10/11 02:06:09;;;;;;;2.25;1.90;;;15.50;72.70;;;;;;4879565;29;20068;-79
2021/10/11 02:08:35;;;;;;;3.28;2.00;;;15.40;72.60;;;;;;4864599;29;20037;-80
2021/10/11 02:11:00;;;;;;;2.67;1.80;;;15.40;72.60;;;;;;4879185;29;20126;-79
2021/10/11 02:13:26;;;;;;;3.00;1.90;;;15.40;72.60;;;;;;4879514;29;20080;-79
2021/10/11 02:15:52;;;;;;;2.72;1.70;;;15.40;72.60;;;;;;4895039;29;20044;-80
2021/10/11 02:18:18;;;;;;;2.65;1.90;;;15.40;72.70;;;;;;4895070;29;20132;-79
2021/10/11 02:20:43;;;;;;;2.58;1.80;;;15.40;72.60;;;;;;4848445;29;20558;-80
2021/10/11 02:23:10;;;;;;;2.80;1.80;;;15.40;72.60;;;;;;4864634;29;20033;-80
2021/10/11 02:25:36;;;;;;;2.70;1.50;;;15.40;72.60;;;;;;4880808;29;20092;-79
2021/10/11 02:28:02;;;;;;;2.47;1.60;;;15.40;72.60;;;;;;4864066;29;20040;-79
2021/10/11 02:30:28;;;;;;;3.65;2.08;;;15.40;72.60;;;;;;4879025;29;20539;-79
2021/10/11 02:32:53;;;;;;;2.53;1.73;;;15.30;72.60;;;;;;4879260;29;20578;-80
2021/10/11 02:35:20;;;;;;;1.73;1.55;;;15.40;72.70;;;;;;4864552;29;20423;-79
2021/10/11 02:37:47;;;;;;;2.35;1.60;;;15.40;72.70;;;;;;4864414;29;20029;-79
2021/10/11 02:40:13;;;;;;;2.88;1.70;;;15.30;72.60;;;;;;4863692;29;20037;-79
2021/10/11 02:42:39;;;;;;;3.33;1.90;;;15.30;72.60;;;;;;4879214;29;20053;-80
2021/10/11 02:45:05;;;;;;;2.35;1.60;;;15.30;72.60;;;;;;4878787;29;20048;-78
2021/10/11 02:47:31;;;;;;;3.38;1.83;;;15.30;72.70;;;;;;4863949;29;20048;-79
2021/10/11 02:49:56;;;;;;;2.10;1.52;;;15.30;72.60;;;;;;4880407;29;20025;-79
2021/10/11 02:52:22;;;;;;;1.85;1.45;;;15.20;72.60;;;;;;4878691;29;20039;-80
2021/10/11 02:54:48;;;;;;;1.92;1.50;;;15.30;72.60;;;;;;4863724;29;20045;-79
2021/10/11 02:57:14;;;;;;;2.25;1.60;;;15.30;72.60;;;;;;4879156;29;20029;-79
2021/10/11 02:59:39;;;;;;;2.28;1.70;;;15.30;72.70;;;;;;4878545;29;20037;-78
2021/10/11 03:02:05;;;;;;;2.58;1.67;;;15.20;73.20;;;;;;4863249;29;20037;-79
2021/10/11 03:04:31;;;;;;;2.70;1.67;;;15.20;72.60;;;;;;4879973;29;20394;-79
2021/10/11 03:06:56;;;;;;;1.77;1.35;;;15.20;72.60;;;;;;4878680;29;20044;-79
2021/10/11 03:09:22;;;;;;;1.42;1.25;;;15.20;72.60;;;;;;4879787;29;20089;-79
2021/10/11 03:11:49;;;;;;;1.92;1.40;;;15.20;72.60;;;;;;4912169;29;20025;-80
2021/10/11 03:14:15;;;;;;;2.13;1.60;;;15.20;72.60;;;;;;4882251;29;20123;-80
2021/10/11 03:16:40;;;;;;;2.63;1.40;;;15.20;72.60;;;;;;4882013;29;20577;-79
2021/10/11 03:19:06;;;;;;;2.20;1.58;;;15.20;72.70;;;;;;4866511;29;20477;-79
2021/10/11 03:21:32;;;;;;;2.33;1.48;;;15.10;72.60;;;;;;4881536;29;20032;-79
2021/10/11 03:23:57;;;;;;;1.58;1.38;;;15.10;72.60;;;;;;4881702;29;20068;-79
2021/10/11 03:26:23;;;;;;;1.92;1.48;;;15.10;72.60;;;;;;4881675;29;20032;-78
2021/10/11 03:28:49;;;;;;;2.30;1.60;;;15.10;72.60;;;;;;4881435;29;20032;-79
2021/10/11 03:31:15;;;;;;;2.35;1.30;;;15.00;72.50;;;;;;4898621;29;20129;-80
2021/10/11 03:33:40;;;;;;;3.00;1.70;;;15.00;72.60;;;;;;4881904;29;20040;-78
2021/10/11 03:36:07;;;;;;;1.48;1.13;;;15.00;72.50;;;;;;4881481;29;20044;-79
2021/10/11 03:38:33;;;;;;;1.38;1.27;;;15.00;72.60;;;;;;4866489;29;20037;-79
2021/10/11 03:40:59;;;;;;;1.58;1.23;;;15.00;72.60;;;;;;4898091;29;20031;-79
2021/10/11 03:43:26;;;;;;;2.25;1.55;;;15.00;72.60;;;;;;4897305;29;20385;-78
2021/10/11 03:45:52;;;;;;;2.45;1.35;;;14.90;72.50;;;;;;4882255;29;20450;-79
2021/10/11 03:48:18;;;;;;;2.20;1.38;;;14.90;72.50;;;;;;4881468;29;20088;-79
2021/10/11 03:50:46;;;;;;;2.08;1.23;;;14.90;72.60;;;;;;4865982;29;20040;-79
2021/10/11 03:53:13;;;;;;;1.60;1.20;;;14.90;72.60;;;;;;4882208;29;20037;-80
2021/10/11 03:55:40;;;;;;;1.88;1.40;;;14.80;72.60;;;;;;4881616;29;20663;-79
2021/10/11 03:58:06;;;;;;;1.67;1.25;;;14.90;72.60;;;;;;4881213;29;20115;-79
2021/10/11 04:00:32;;;;;;;1.60;1.40;;;14.80;72.60;;;;;;4898112;29;20140;-79
2021/10/11 04:03:02;;;;;;;1.35;1.25;;;14.80;72.50;;;;;;4866500;29;20033;-79
2021/10/11 04:05:28;;;;;;;2.20;1.20;;;14.80;72.50;;;;;;4865786;29;20045;-79
2021/10/11 04:07:56;;;;;;;1.90;1.30;;;14.80;72.50;;;;;;4896975;29;20039;-79
2021/10/11 04:10:27;;;;;;;1.55;1.30;;;14.80;72.50;;;;;;4866910;29;20033;-79
2021/10/11 04:12:57;;;;;;;2.42;1.25;;;14.80;72.50;;;;;;4898542;29;20108;-80
2021/10/11 04:15:23;;;;;;;2.53;1.40;;;14.70;72.50;;;;;;4883873;29;20445;-79
2021/10/11 04:17:49;;;;;;;1.73;1.20;;;14.70;72.50;;;;;;4884401;29;20056;-79
2021/10/11 04:20:14;;;;;;;2.20;1.42;;;14.70;72.50;;;;;;4900123;29;20040;-79
2021/10/11 04:22:40;;;;;;;1.27;1.15;;;14.70;72.50;;;;;;4900192;29;20029;-79
2021/10/11 04:25:06;;;;;;;2.20;1.23;;;14.70;72.50;;;;;;4869511;29;20474;-80
2021/10/11 04:27:32;;;;;;;2.42;1.52;;;14.60;72.50;;;;;;4884589;29;20454;-79
2021/10/11 04:29:58;;;;;;;2.03;1.30;;;14.60;72.50;;;;;;4869480;29;20029;-78
2021/10/11 04:32:24;;;;;;;1.02;1.00;;;14.60;72.50;;;;;;4884957;29;20525;-79
2021/10/11 04:34:50;;;;;;;1.65;1.10;;;14.60;72.50;;;;;;4900587;29;20033;-78
2021/10/11 04:37:15;;;;;;;1.58;1.15;;;14.60;72.50;;;;;;4869060;29;20128;-79
2021/10/11 04:39:41;;;;;;;2.53;1.30;;;14.60;72.50;;;;;;4900154;29;20039;-78
2021/10/11 04:42:07;;;;;;;1.40;1.10;;;14.50;72.50;;;;;;4884080;29;20037;-78
2021/10/11 04:44:33;;;;;;;2.47;1.20;;;14.50;72.50;;;;;;4883969;29;20037;-79
2021/10/11 04:46:58;;;;;;;1.90;1.30;;;14.50;72.50;;;;;;4884386;29;20141;-79
2021/10/11 04:49:24;;;;;;;2.08;1.38;;;14.50;72.50;;;;;;4883771;29;20096;-79
2021/10/11 04:51:50;;;;;;;3.47;1.20;;;14.50;72.50;;;;;;4868687;29;20140;-77
2021/10/11 04:54:16;;;;;;;1.40;1.00;;;14.40;72.50;;;;;;4899614;29;20036;-79
2021/10/11 04:56:42;;;;;;;1.38;1.20;;;14.40;72.50;;;;;;4868416;29;20406;-77
2021/10/11 04:59:08;;;;;;;2.15;1.30;;;14.40;72.50;;;;;;4868166;29;20035;-78
2021/10/11 05:01:33;;;;;;;2.58;1.30;;;14.40;72.50;;;;;;4884369;29;20415;-77
2021/10/11 05:03:59;;;;;;;1.50;1.20;;;14.40;72.50;;;;;;4883745;29;20048;-77
2021/10/11 05:06:25;;;;;;;1.23;1.13;;;14.30;72.50;;;;;;4868408;29;20387;-77
2021/10/11 05:08:50;;;;;;;1.35;1.13;;;14.30;72.50;;;;;;4883709;29;20127;-78
2021/10/11 05:11:16;;;;;;;1.23;1.13;;;14.30;72.50;;;;;;4883427;29;20037;-78
2021/10/11 05:13:42;;;;;;;1.30;1.20;;;14.30;72.50;;;;;;4900083;29;20063;-77
2021/10/11 05:16:13;;;;;;;1.63;1.10;;;14.30;72.50;;;;;;4868043;29;20067;-78
2021/10/11 05:18:38;;;;;;;1.95;1.25;;;14.30;72.60;;;;;;4899913;29;20040;-77
2021/10/11 05:21:06;;;;;;;1.63;1.30;;;14.20;72.50;;;;;;4900347;29;20036;-77
2021/10/11 05:23:31;;;;;;;1.83;1.13;;;14.20;72.50;;;;;;4883112;29;20043;-78
2021/10/11 05:25:57;;;;;;;1.65;1.17;;;14.20;72.50;;;;;;4899131;29;20033;-76
2021/10/11 05:28:23;;;;;;;2.03;1.33;;;14.20;72.60;;;;;;4867823;29;20036;-77
2021/10/11 05:30:49;;;;;;;1.63;1.30;;;14.20;72.60;;;;;;4883081;29;20033;-77
2021/10/11 05:33:19;;;;;;;1.60;1.27;;;14.10;72.50;;;;;;4883108;29;20103;-76
2021/10/11 05:35:45;;;;;;;2.20;1.33;;;14.10;72.60;;;;;;4882845;29;20036;-78
2021/10/11 05:38:11;;;;;;;2.53;1.40;;;14.10;72.60;;;;;;4882934;29;20479;-78
2021/10/11 05:40:37;;;;;;;1.50;1.30;;;14.10;72.60;;;;;;4898364;29;20088;-77
2021/10/11 05:43:03;;;;;;;1.83;1.25;;;14.10;72.60;;;;;;4882761;29;20028;-77
2021/10/11 05:45:29;;;;;;;1.85;1.23;;;14.10;72.60;;;;;;4867297;29;20442;-78
2021/10/11 05:47:55;;;;;;;1.67;1.23;;;14.10;72.60;;;;;;4899919;29;20046;-78
2021/10/11 05:50:21;;;;;;;2.42;1.40;;;14.10;72.70;;;;;;4883180;29;20039;-77
2021/10/11 05:52:46;;;;;;;2.08;1.42;;;14.00;72.60;;;;;;4867300;29;20111;-77
2021/10/11 05:55:13;;;;;;;1.45;1.25;;;14.00;72.60;;;;;;4882998;29;20092;-77
2021/10/11 05:57:40;;;;;;;1.85;1.33;;;14.00;72.70;;;;;;4899426;29;20569;-77
2021/10/11 06:00:06;;;;;;;2.30;1.30;;;14.00;72.70;;;;;;4883056;29;20044;-78
2021/10/11 06:02:32;;;;;;;1.30;1.20;;;14.00;72.70;;;;;;4882688;29;20068;-78
2021/10/11 06:04:58;;;;;;;1.98;1.38;;;14.00;72.70;;;;;;4867083;29;20470;-79
2021/10/11 06:07:23;;;;;;;2.92;1.63;;;13.90;72.70;;;;;;4898437;29;20072;-78
2021/10/11 06:09:49;;;;;;;1.25;1.15;;;13.90;72.70;;;;;;4899574;29;20381;-78
2021/10/11 06:12:15;;;;;;;2.35;1.40;;;13.90;72.70;;;;;;4897793;29;20402;-78
2021/10/11 06:14:40;;;;;;;1.55;1.40;;;13.90;72.70;;;;;;4882342;29;20540;-78
2021/10/11 06:17:06;;;;;;;3.05;1.40;;;13.90;72.70;;;;;;4898968;29;20028;-78
2021/10/11 06:19:32;;;;;;;2.15;1.35;;;13.90;72.70;;;;;;4882701;29;20088;-78
2021/10/11 06:21:58;;;;;;;2.28;1.52;;;13.90;72.70;;;;;;4882778;29;20036;-79
2021/10/11 06:24:23;;;;;;;1.85;1.40;;;13.90;72.70;;;;;;4882361;29;20539;-78
2021/10/11 06:26:50;;;;;;;2.83;1.50;;;13.80;72.80;;;;;;4882807;29;20398;-78
2021/10/11 06:29:15;;;;;;;1.38;1.15;;;13.80;72.80;;;;;;4882290;29;20032;-78
2021/10/11 06:31:41;;;;;;;1.38;1.20;;;13.80;72.80;;;;;;4882113;29;20108;-78
2021/10/11 06:34:07;;;;;;;2.05;1.40;;;13.80;72.80;;;;;;4866716;29;20044;-79
2021/10/11 06:36:35;;;;;;;3.30;1.20;;;13.80;72.90;;;;;;4882430;29;20029;-78
2021/10/11 06:39:04;;;;;;;2.42;1.48;;;13.80;72.90;;;;;;4867395;29;20079;-79
2021/10/11 06:41:32;;;;;;;2.45;1.45;;;13.80;73.60;;;;;;4898932;29;20033;-79
2021/10/11 06:43:57;;;;;;;2.45;1.33;;;13.80;73.00;;;;;;4867269;29;20466;-79
2021/10/11 06:46:23;;;;;;;1.90;1.35;;;13.80;73.00;;;;;;4867421;29;20033;-78
2021/10/11 06:48:50;;;;;;;1.60;1.20;;;13.70;73.00;;;;;;4898804;29;20051;-80
2021/10/11 06:51:16;;;;;;;1.70;1.15;;;13.70;73.00;;;;;;4898556;29;20039;-79
2021/10/11 06:53:41;;;;;;;3.35;1.50;;;13.70;73.10;;;;;;4866811;29;20036;-79
2021/10/11 06:56:07;;;;;;;1.33;1.13;;;13.80;73.20;;;;;;4866418;29;20506;-80
2021/10/11 06:58:33;;;;;;;1.90;1.30;;;13.70;73.10;;;;;;4881857;29;20033;-78
2021/10/11 07:00:59;;;;;;;1.80;1.33;;;13.70;73.20;;;;;;4898324;29;20036;-78
2021/10/11 07:03:25;;;;;;;2.13;1.38;;;13.70;73.20;;;;;;4866870;29;20032;-77
2021/10/11 07:06:04;;;;;;;1.98;1.48;;;13.70;73.20;;;;;;4898346;29;20047;-81
2021/10/11 07:08:31;;;;;;;1.88;1.30;;;13.70;73.30;;;;;;4882202;29;20028;-81
2021/10/11 07:10:56;;;;;;;1.92;1.20;;;13.70;73.20;;;;;;4881960;29;20024;-79
2021/10/11 07:13:23;;;;;;;2.55;1.40;;;13.70;73.90;;;;;;4863700;29;20068;-80
2021/10/11 07:15:49;;;;;;;1.80;1.42;;;13.70;73.30;;;;;;4911013;29;20041;-80
2021/10/11 07:18:14;;;;;;;1.67;1.30;;;13.70;73.30;;;;;;4878852;29;20168;-80
2021/10/11 07:20:43;;;;;;;1.42;1.25;;;13.70;73.40;;;;;;4879701;29;20462;-80
2021/10/11 07:23:10;;;;;;;2.03;1.30;;;13.70;73.30;;;;;;4878811;29;20029;-79
2021/10/11 07:25:36;;;;;;;2.03;1.33;;;13.70;73.40;;;;;;4863912;29;20033;-80
2021/10/11 07:28:02;;;;;;;1.77;1.25;;;13.70;73.40;;;;;;4863752;29;20367;-78
2021/10/11 07:30:29;;;;;;;1.77;1.40;;;13.70;73.40;;;;;;4879701;29;20041;-79
2021/10/11 07:32:55;;;;;;;1.75;1.17;;;13.70;73.40;;;;;;4864161;29;20029;-81
2021/10/11 07:35:20;;;;;;;1.90;1.38;;;13.80;73.50;;;;;;4879925;29;20077;-81
2021/10/11 07:37:49;;;;;;;1.85;1.23;;;13.80;73.50;;;;;;4894688;29;20147;-81
2021/10/11 07:40:16;;;;;;;1.77;1.23;;;13.70;73.50;;;;;;4848654;29;20025;-82
2021/10/11 07:42:41;;;;;;;2.63;1.50;;;13.80;73.50;;;;;;4863682;29;20089;-82
2021/10/11 07:45:07;;;;;;;1.38;1.25;;;13.80;73.50;;;;;;4894788;29;20132;-82
2021/10/11 07:47:33;;;;;;;1.73;1.40;;;13.80;73.60;;;;;;4910416;29;20032;-83
2021/10/11 07:49:59;;;;;;;1.77;1.35;;;13.80;73.60;;;;;;4881347;29;20045;-83
2021/10/11 07:52:25;;;;;;;2.47;1.35;;;13.80;73.60;;;;;;4883026;29;20041;-82
2021/10/11 07:54:50;;;;;;;2.55;1.20;;;13.80;73.60;;;;;;4883690;29;20467;-83
2021/10/11 07:57:19;;;;;;;2.13;1.40;;;13.80;73.60;;;;;;4883820;29;20048;-82
2021/10/11 07:59:45;;;;;;;2.78;1.65;;;13.80;73.60;;;;;;4882333;29;20037;-82
2021/10/11 08:02:11;;;;;;;2.40;1.30;;;13.80;73.60;;;;;;4866995;29;20447;-81
2021/10/11 08:04:36;;;;;;;1.95;1.20;;;13.80;73.70;;;;;;4913404;29;20043;-82
2021/10/11 08:07:02;;;;;;;2.53;1.35;;;13.80;73.70;;;;;;4883279;29;20041;-82
2021/10/11 08:09:28;;;;;;;1.75;1.38;;;13.80;73.70;;;;;;4882437;29;20052;-82
2021/10/11 08:11:54;;;;;;;2.05;1.30;;;13.80;73.70;;;;;;4851344;29;20041;-82
2021/10/11 08:14:20;;;;;;;1.90;1.30;;;13.80;73.70;;;;;;4868074;29;20087;-83
2021/10/11 08:16:46;;;;;;;2.63;1.30;;;13.90;73.80;;;;;;4882990;29;20061;-83
2021/10/11 08:19:12;;;;;;;2.40;1.38;;;13.80;73.80;;;;;;4883017;29;20476;-82
2021/10/11 08:21:38;;;;;;;1.70;1.20;;;13.90;73.80;;;;;;4883092;29;20048;-81
2021/10/11 08:24:05;;;;;;;1.90;1.38;;;13.90;73.80;;;;;;4881994;29;20037;-82
2021/10/11 08:26:34;;;;;;;1.80;1.23;;;13.90;73.80;;;;;;4866524;29;20492;-82
2021/10/11 08:29:02;;;;;;;1.95;1.40;;;13.90;73.80;;;;;;4897663;29;20072;-82
2021/10/11 08:31:28;;;;;;;1.52;1.20;;;13.90;73.80;;;;;;4882329;29;20033;-83
2021/10/11 08:33:54;;;;;;;2.53;1.50;;;13.90;73.80;;;;;;4867050;29;20065;-82
2021/10/11 08:36:19;;;;;;;1.20;1.10;;;13.90;73.80;;;;;;4866328;29;20514;-82
2021/10/11 08:38:45;;;;;;;1.67;1.10;;;13.90;73.80;;;;;;4881646;29;20030;-82
2021/10/11 08:41:11;;;;;;;1.67;1.30;;;14.00;73.90;;;;;;4882890;29;20092;-83
2021/10/11 08:43:39;;;;;;;1.58;1.20;;;14.00;73.90;;;;;;4881872;29;20037;-83
2021/10/11 08:46:06;;;;;;;1.58;1.40;;;14.00;73.90;;;;;;4883568;29;20037;-83
2021/10/11 08:48:33;;;;;;;1.58;1.15;;;14.00;73.90;;;;;;4888141;29;20033;-83
2021/10/11 08:51:00;;;;;;;2.05;1.30;;;14.10;73.90;;;;;;4891495;29;20043;-83
2021/10/11 08:53:26;;;;;;;2.13;1.38;;;14.00;73.90;;;;;;4881698;29;20040;-83
2021/10/11 08:55:52;;;;;;;1.85;1.38;;;14.10;73.90;;;;;;4866193;29;20496;-83
2021/10/11 08:58:19;;;;;;;1.42;1.23;;;14.10;74.00;;;;;;4882576;29;20036;-81
2021/10/11 09:00:44;;;;;;;2.45;1.20;;;14.10;73.90;;;;;;4881569;29;20041;-82
2021/10/11 09:03:19;;;;;;;2.13;1.42;;;14.10;73.90;;;;;;4912695;29;20065;-82
2021/10/11 09:05:53;;;;;;;2.20;1.33;;;14.10;74.00;;;;;;4880937;29;20124;-81
2021/10/11 09:08:19;;;;;;;1.85;1.30;;;14.20;74.00;;;;;;4881992;29;20222;-83
2021/10/11 09:11:01;;;;;;;1.77;1.30;;;14.20;73.90;;;;;;4898185;29;20037;-83
2021/10/11 09:13:43;;;;;;;1.80;1.27;;;14.20;73.90;;;;;;4865865;29;20077;-84
2021/10/11 09:16:32;;;;;;;2.97;1.27;;;14.30;74.00;;;;;;4866308;29;20039;-84
2021/10/11 09:19:08;;;;;;;1.90;1.25;;;14.30;74.00;;;;;;4882495;29;20033;-83
2021/10/11 09:21:35;;;;;;;1.10;1.00;;;14.30;74.00;;;;;;4881687;29;20055;-84
2021/10/11 09:24:06;;;;;;;2.13;1.20;;;14.30;73.90;;;;;;4865857;29;20093;-84
2021/10/11 09:26:53;;;;;;;1.63;1.20;;;14.30;73.90;;;;;;4866026;29;20064;-83
2021/10/11 09:29:31;;;;;;;1.60;1.30;;;14.40;74.10;;;;;;4897048;29;20102;-83
2021/10/11 09:32:05;;;;;;;2.58;1.63;;;14.40;74.00;;;;;;4865932;29;20136;-83
2021/10/11 09:34:32;;;;;;;1.30;1.20;;;14.40;73.90;;;;;;4897546;29;20064;-83
2021/10/11 09:37:00;;;;;;;2.30;1.30;;;14.40;73.80;;;;;;4851244;29;20041;-83
2021/10/11 09:39:28;;;;;;;2.72;1.52;;;14.50;73.90;;;;;;4865651;29;20040;-84
2021/10/11 09:41:56;;;;;;;1.52;1.20;;;14.50;73.80;;;;;;4897180;29;20036;-83
2021/10/11 09:44:22;;;;;;;1.40;1.20;;;14.50;73.80;;;;;;4880451;29;20061;-83
2021/10/11 09:46:52;;;;;;;2.33;1.20;;;14.60;73.80;;;;;;4880723;29;20021;-83
2021/10/11 09:49:19;;;;;;;3.40;1.33;;;14.60;73.80;;;;;;4882687;29;20095;-84
2021/10/11 09:51:45;;;;;;;2.20;1.33;;;14.60;73.80;;;;;;4881161;29;20092;-84
2021/10/11 09:54:11;;;;;;;2.17;1.20;;;14.60;73.80;;;;;;4865344;29;20037;-84
2021/10/11 09:56:38;;;;;;;1.95;1.35;;;14.70;73.80;;;;;;4882360;29;20025;-83
2021/10/11 09:59:03;;;;;;;1.45;1.25;;;14.70;73.80;;;;;;4896815;29;20105;-83
2021/10/11 10:01:31;;;;;;;2.35;1.40;;;14.70;73.80;;;;;;4865950;29;20080;-84
2021/10/11 10:03:58;;;;;;;1.13;0.93;;;14.80;73.80;;;;;;4865353;29;20052;-82
2021/10/11 10:06:30;;;;;;;2.80;1.35;;;14.80;73.80;;;;;;4896288;29;20029;-81
2021/10/11 10:08:58;;;;;;;1.77;1.15;;;14.80;73.80;;;;;;4880361;29;20029;-81
2021/10/11 10:11:30;;;;;;;3.17;1.30;;;14.80;73.70;;;;;;4863684;29;20037;-79
2021/10/11 10:13:56;;;;;;;2.20;1.27;;;14.90;73.80;;;;;;4864891;29;20056;-83
2021/10/11 10:16:22;;;;;;;1.80;1.10;;;14.90;73.70;;;;;;4912515;29;20120;-85
2021/10/11 10:18:48;;;;;;;2.38;1.20;;;14.90;73.70;;;;;;4864727;29;20096;-81
2021/10/11 10:21:17;;;;;;;3.38;1.52;;;15.00;73.70;;;;;;4880115;29;20163;-82
2021/10/11 10:23:53;;;;;;;1.55;1.30;;;15.00;73.80;;;;;;4880406;29;20051;-82
2021/10/11 10:26:33;;;;;;;1.42;1.23;;;15.10;73.80;;;;;;4880330;29;20093;-81
2021/10/11 10:29:00;;;;;;;1.98;1.20;;;15.10;73.80;;;;;;4864698;29;20394;-79
2021/10/11 10:31:28;;;;;;;2.05;1.25;;;15.10;73.70;;;;;;4864747;29;20060;-78
2021/10/11 10:33:54;;;;;;;2.03;1.30;;;15.10;73.70;;;;;;4864089;29;20064;-80
2021/10/11 10:36:30;;;;;;;1.85;1.23;;;15.10;73.70;;;;;;4864478;29;20072;-83
2021/10/11 10:39:07;;;;;;;1.98;1.17;;;15.20;73.90;;;;;;4879523;29;20052;-81
2021/10/11 10:41:35;;;;;;;2.45;1.30;;;15.20;73.80;;;;;;4894802;29;20450;-81
2021/10/11 10:44:16;;;;;;;2.20;1.30;;;15.20;73.70;;;;;;4879006;29;20037;-79
2021/10/11 10:46:55;;;;;;;2.00;1.30;;;15.30;73.90;;;;;;4864046;29;20093;-79
2021/10/11 10:49:30;;;;;;;1.75;1.20;;;15.30;73.90;;;;;;4863945;29;20029;-80
2021/10/11 10:51:56;;;;;;;2.13;1.20;;;15.30;73.90;;;;;;4880221;29;20033;-79
2021/10/11 10:54:39;;;;;;;1.88;1.13;;;15.40;73.80;;;;;;4863933;29;20506;-80
2021/10/11 10:57:06;;;;;;;1.95;1.23;;;15.40;74.00;;;;;;4880376;29;20560;-81
2021/10/11 10:59:32;;;;;;;2.83;1.20;;;15.40;73.90;;;;;;4879024;29;20037;-80
2021/10/11 11:02:09;;;;;;;2.90;1.30;;;15.40;73.90;;;;;;4863771;29;20029;-82
2021/10/11 11:04:36;;;;;;;2.47;1.30;;;15.50;74.10;;;;;;4879973;29;20542;-81
2021/10/11 11:07:07;;;;;;;2.60;1.30;;;15.50;74.00;;;;;;4910313;29;20035;-81
2021/10/11 11:09:44;;;;;;;2.40;1.30;;;15.60;74.10;;;;;;4863729;29;20039;-82
2021/10/11 11:12:12;;;;;;;2.15;1.05;;;15.60;74.20;;;;;;4881656;29;20085;-80
2021/10/11 11:14:43;;;;;;;2.10;1.10;;;15.60;74.10;;;;;;4913392;29;20064;-81
2021/10/11 11:17:13;;;;;;;2.13;1.25;;;15.70;74.10;;;;;;4898648;29;20194;-80
2021/10/11 11:19:42;;;;;;;2.00;1.25;;;15.70;74.10;;;;;;4867844;29;20390;-82
2021/10/11 11:22:13;;;;;;;2.58;1.30;;;15.70;74.10;;;;;;4897740;29;20072;-82
2021/10/11 11:24:48;;;;;;;4.00;1.35;;;15.80;74.10;;;;;;4870874;29;20090;-81
2021/10/11 11:27:34;;;;;;;2.88;1.17;;;15.80;74.20;;;;;;4902036;29;20040;-80
2021/10/11 11:30:07;;;;;;;1.58;1.00;;;15.80;74.10;;;;;;4886249;29;20108;-80
2021/10/11 11:32:43;;;;;;;2.58;1.10;;;15.90;74.70;;;;;;4902814;29;20044;-83
2021/10/11 11:35:23;;;;;;;2.15;1.38;;;15.90;74.10;;;;;;4902303;29;20040;-78
2021/10/11 11:37:52;;;;;;;1.15;1.05;;;15.90;74.10;;;;;;4869917;29;20051;-79
2021/10/11 11:40:21;;;;;;;2.60;1.20;;;15.90;74.00;;;;;;4870024;29;20036;-80
2021/10/11 11:42:48;;;;;;;3.53;1.17;;;16.00;74.10;;;;;;4885474;29;20033;-80
2021/10/11 11:45:19;;;;;;;2.20;1.20;;;16.00;74.10;;;;;;4885457;29;20044;-80
2021/10/11 11:47:46;;;;;;;1.77;0.90;;;16.00;74.00;;;;;;4869652;29;20024;-81
2021/10/11 11:50:20;;;;;;;1.58;1.08;;;16.00;73.90;;;;;;4901224;29;20383;-80
2021/10/11 11:52:51;;;;;;;4.53;1.30;;;16.00;74.00;;;;;;4916901;29;20059;-80
2021/10/11 11:55:18;;;;;;;2.33;1.23;;;16.10;74.00;;;;;;4901726;29;20120;-80
2021/10/11 11:57:45;;;;;;;2.40;0.90;;;16.10;73.90;;;;;;4885469;29;20032;-80
2021/10/11 12:00:12;;;;;;;2.08;1.10;;;16.10;74.00;;;;;;4869633;29;20043;-80
2021/10/11 12:02:41;;;;;;;1.30;0.90;;;16.20;74.00;;;;;;4869557;29;20111;-79
2021/10/11 12:05:08;;;;;;;1.35;1.00;;;16.20;73.90;;;;;;4869693;29;20068;-79
2021/10/11 12:07:34;;;;;;;1.33;0.90;;;16.20;73.80;;;;;;4902504;29;20104;-77
2021/10/11 12:10:00;;;;;;;0.90;0.82;;;16.20;73.70;;;;;;4901408;29;20529;-79
2021/10/11 12:12:33;;;;;;;1.50;1.00;;;16.20;73.70;;;;;;4868975;29;20036;-79
2021/10/11 12:14:59;;;;;;;1.48;0.90;;;16.30;74.30;;;;;;4916072;29;20044;-79
2021/10/11 12:17:37;;;;;;;0.95;0.75;;;16.30;73.60;;;;;;4916998;29;20044;-78
2021/10/11 12:20:03;;;;;;;2.28;1.13;;;16.30;73.60;;;;;;4869533;29;20032;-80
2021/10/11 12:22:33;;;;;;;1.40;0.80;;;16.40;73.60;;;;;;4901710;29;20039;-78
2021/10/11 12:25:02;;;;;;;3.35;1.27;;;16.40;73.50;;;;;;4884765;29;20120;-79
2021/10/11 12:27:29;;;;;;;2.53;1.00;;;16.40;73.50;;;;;;4901465;29;20108;-78
2021/10/11 12:29:55;;;;;;;2.30;1.00;;;16.40;73.50;;;;;;4900376;29;20033;-79
2021/10/11 12:32:33;;;;;;;2.50;1.10;;;16.50;73.60;;;;;;4869649;29;20119;-80
2021/10/11 12:35:01;;;;;;;0.93;0.82;;;16.50;73.50;;;;;;4884366;29;20036;-79
2021/10/11 12:37:38;;;;;;;2.95;0.95;;;16.50;73.40;;;;;;4869318;29;20051;-78
2021/10/11 12:40:05;;;;;;;1.55;0.90;;;16.50;73.40;;;;;;4869045;29;20032;-80
2021/10/11 12:42:38;;;;;;;2.42;1.00;;;16.60;73.20;;;;;;4869997;29;20040;-80
2021/10/11 12:45:11;;;;;;;3.03;1.00;;;16.60;73.20;;;;;;4902107;29;20132;-80
2021/10/11 12:47:38;;;;;;;0.73;0.70;;;16.60;73.10;;;;;;4900565;29;20032;-80
2021/10/11 12:50:15;;;;;;;0.93;0.80;;;16.60;73.00;;;;;;4899998;29;20029;-79